Time;durP1;ratioP1;P1;durP2;ratioP2;P2;SDS_P1;SDS_P2;PMS_P1;PMS_P2;Temp;Humidity;BMP_temperature;BMP_pressure;BME280_temperature;BME280_humidity;BME280_pressure;Samples;Min_cycle;Max_cycle;Signal;HPM_P1;HPM_P2
2023/01/28 00:01:45;;;;;;;5.67;5.10;;;18.50;36.60;;;;;;4952507;28;20233;-67
2023/01/28 00:04:10;;;;;;;7.83;5.60;;;18.50;36.70;;;;;;4955204;28;20703;-65
2023/01/28 00:06:37;;;;;;;7.20;5.50;;;18.50;36.60;;;;;;4957920;28;20606;-67
2023/01/28 00:09:02;;;;;;;6.87;5.33;;;18.50;36.60;;;;;;4958807;28;20225;-66
2023/01/28 00:11:28;;;;;;;5.93;5.43;;;18.50;36.60;;;;;;4952120;28;20951;-67
2023/01/28 00:13:54;;;;;;;6.70;5.13;;;18.50;36.60;;;;;;4954481;28;20232;-67
2023/01/28 00:16:21;;;;;;;5.20;4.80;;;18.50;36.60;;;;;;4953933;28;20955;-65
2023/01/28 00:18:47;;;;;;;5.60;5.10;;;18.50;36.70;;;;;;4955266;28;20611;-65
2023/01/28 00:21:14;;;;;;;7.10;5.50;;;18.50;36.60;;;;;;4955874;28;20475;-65
2023/01/28 00:23:41;;;;;;;5.43;5.03;;;18.50;36.60;;;;;;4961049;28;20353;-66
2023/01/28 00:26:10;;;;;;;9.90;5.93;;;18.50;36.60;;;;;;4958532;28;20941;-67
2023/01/28 00:28:36;;;;;;;4.30;4.00;;;18.60;36.70;;;;;;4963138;28;20459;-67
2023/01/28 00:31:15;;;;;;;6.30;5.50;;;18.50;36.60;;;;;;4956457;28;20466;-67
2023/01/28 00:33:40;;;;;;;5.30;4.90;;;18.50;36.60;;;;;;4960797;28;20446;-66
2023/01/28 00:36:06;;;;;;;5.70;5.20;;;18.50;36.60;;;;;;4958427;28;20463;-67
2023/01/28 00:38:33;;;;;;;5.50;5.00;;;18.50;36.50;;;;;;4962305;28;20263;-65
2023/01/28 00:41:09;;;;;;;4.67;4.27;;;18.50;36.60;;;;;;4957797;28;20240;-67
2023/01/28 00:43:35;;;;;;;5.33;4.87;;;18.60;36.60;;;;;;4961472;28;20461;-67
2023/01/28 00:46:01;;;;;;;5.70;5.03;;;18.60;36.60;;;;;;4953291;28;20533;-67
2023/01/28 00:48:26;;;;;;;5.87;5.27;;;18.60;36.70;;;;;;4958096;28;20441;-68
2023/01/28 00:50:52;;;;;;;6.13;5.50;;;18.60;36.60;;;;;;4958945;28;20239;-65
2023/01/28 00:53:17;;;;;;;5.33;4.93;;;18.60;36.70;;;;;;4960021;28;20225;-67
2023/01/28 00:55:43;;;;;;;5.97;4.90;;;18.60;36.60;;;;;;4958973;28;20216;-67
2023/01/28 00:58:08;;;;;;;5.23;4.73;;;18.60;36.70;;;;;;4959102;28;20225;-68
2023/01/28 01:00:34;;;;;;;6.17;5.30;;;18.60;36.50;;;;;;4958193;28;20963;-67
2023/01/28 01:02:59;;;;;;;5.60;5.10;;;18.60;36.60;;;;;;4958911;28;20232;-67
2023/01/28 01:05:25;;;;;;;4.90;4.40;;;18.60;36.60;;;;;;4958870;28;20239;-66
2023/01/28 01:07:50;;;;;;;5.90;5.13;;;18.60;36.60;;;;;;4957684;28;20222;-67
2023/01/28 01:10:18;;;;;;;5.30;4.90;;;18.60;36.60;;;;;;4959126;28;20244;-67
2023/01/28 01:12:48;;;;;;;5.33;4.93;;;18.60;36.60;;;;;;4957080;28;20233;-65
2023/01/28 01:15:14;;;;;;;4.90;4.43;;;18.60;36.60;;;;;;4955729;28;20463;-67
2023/01/28 01:17:42;;;;;;;5.40;4.90;;;18.60;36.50;;;;;;4959545;28;20594;-66
2023/01/28 01:20:20;;;;;;;5.00;4.60;;;18.60;36.60;;;;;;4959739;28;20225;-67
2023/01/28 01:22:45;;;;;;;5.27;4.67;;;18.60;36.60;;;;;;4957959;28;20441;-65
2023/01/28 01:25:13;;;;;;;4.90;4.50;;;18.60;36.60;;;;;;4960214;28;20781;-67
2023/01/28 01:27:39;;;;;;;4.77;4.40;;;18.60;36.60;;;;;;4958582;28;20228;-67
2023/01/28 01:30:06;;;;;;;5.93;5.33;;;18.60;36.60;;;;;;4958160;28;20466;-66
2023/01/28 01:32:33;;;;;;;5.00;4.57;;;18.60;36.60;;;;;;4956031;28;20271;-67
2023/01/28 01:34:59;;;;;;;6.97;4.60;;;18.60;36.60;;;;;;4960749;28;20538;-67
2023/01/28 01:37:25;;;;;;;4.63;4.23;;;18.60;36.60;;;;;;4958043;28;20436;-66
2023/01/28 01:39:50;;;;;;;4.80;4.40;;;18.50;36.50;;;;;;4959316;28;20228;-66
2023/01/28 01:42:16;;;;;;;4.73;4.37;;;18.60;36.60;;;;;;4953718;28;20243;-67
2023/01/28 01:45:06;;;;;;;4.57;4.20;;;18.60;36.60;;;;;;4960082;28;20283;-67
2023/01/28 01:47:37;;;;;;;4.70;4.40;;;18.60;36.60;;;;;;4957360;28;20232;-66
2023/01/28 01:50:36;;;;;;;4.40;4.10;;;18.60;36.70;;;;;;4958726;28;20465;-66
2023/01/28 01:53:15;;;;;;;4.50;4.20;;;18.60;36.60;;;;;;4960524;28;20513;-67
2023/01/28 01:55:45;;;;;;;4.97;4.60;;;18.50;36.60;;;;;;4955995;28;20570;-66
2023/01/28 01:58:14;;;;;;;4.80;4.50;;;18.50;36.60;;;;;;4957665;28;20538;-67
2023/01/28 02:00:41;;;;;;;4.67;4.27;;;18.50;36.60;;;;;;4955879;28;20493;-66
2023/01/28 02:03:08;;;;;;;4.33;4.03;;;18.50;36.50;;;;;;4943605;28;20430;-67
2023/01/28 02:05:34;;;;;;;4.40;4.00;;;18.60;36.60;;;;;;4954832;28;20507;-66
2023/01/28 02:10:49;;;;;;;4.43;4.13;;;18.50;36.50;;;;;;4953614;28;20243;-66
2023/01/28 02:13:16;;;;;;;4.37;4.07;;;18.60;36.60;;;;;;4959512;28;20540;-66
2023/01/28 02:15:43;;;;;;;5.03;4.23;;;18.50;36.50;;;;;;4954675;28;20540;-66
2023/01/28 02:18:09;;;;;;;5.03;4.63;;;18.50;36.50;;;;;;4959509;28;20499;-66
2023/01/28 02:20:59;;;;;;;4.20;3.90;;;18.50;36.50;;;;;;4938843;28;20749;-65
2023/01/28 02:23:51;;;;;;;5.13;4.53;;;18.50;36.50;;;;;;4962262;28;20225;-66
2023/01/28 02:26:33;;;;;;;4.93;4.57;;;18.50;36.50;;;;;;4956578;28;20455;-66
2023/01/28 02:29:10;;;;;;;4.20;3.90;;;18.50;36.60;;;;;;4958549;28;20457;-67
2023/01/28 02:32:08;;;;;;;4.83;4.53;;;18.50;36.50;;;;;;4954995;28;20480;-66
2023/01/28 02:34:45;;;;;;;4.33;3.93;;;18.50;36.50;;;;;;4959037;28;20963;-67
2023/01/28 02:37:30;;;;;;;4.20;3.90;;;18.50;36.60;;;;;;4955740;28;20481;-67
2023/01/28 02:40:09;;;;;;;4.50;4.10;;;18.50;36.50;;;;;;4954317;28;20461;-66
2023/01/28 02:42:38;;;;;;;3.87;3.60;;;18.50;36.60;;;;;;4952930;28;20470;-66
2023/01/28 02:45:17;;;;;;;4.20;3.90;;;18.50;36.50;;;;;;4958170;28;20455;-67
2023/01/28 02:47:58;;;;;;;4.97;4.60;;;18.50;36.50;;;;;;4955443;28;20475;-67
2023/01/28 02:50:36;;;;;;;4.23;3.93;;;18.50;36.50;;;;;;4955434;28;20481;-66
2023/01/28 02:53:42;;;;;;;4.23;3.93;;;18.50;36.50;;;;;;4959678;28;20450;-68
2023/01/28 02:56:28;;;;;;;4.33;4.03;;;18.50;36.40;;;;;;4955062;28;20463;-66
2023/01/28 02:59:29;;;;;;;4.40;4.10;;;18.50;36.50;;;;;;4958388;28;21496;-68
2023/01/28 03:01:57;;;;;;;3.63;3.33;;;18.60;36.50;;;;;;4954167;28;21022;-67
2023/01/28 03:04:38;;;;;;;4.23;3.93;;;18.60;36.60;;;;;;4960791;28;20429;-67
2023/01/28 03:07:07;;;;;;;4.10;3.80;;;18.60;36.50;;;;;;4958098;28;21296;-67
2023/01/28 03:09:36;;;;;;;3.57;3.37;;;18.60;36.50;;;;;;4958371;28;20534;-66
2023/01/28 03:37:25;;;;;;;3.63;3.43;;;18.50;36.50;;;;;;4956955;28;20953;-66
2023/01/28 03:39:51;;;;;;;4.30;4.00;;;18.50;36.50;;;;;;4958576;28;20485;-66
2023/01/28 03:42:17;;;;;;;4.13;3.83;;;18.50;36.40;;;;;;4956494;28;20569;-67
2023/01/28 03:44:52;;;;;;;3.80;3.50;;;18.50;36.50;;;;;;4959959;28;20243;-67
2023/01/28 03:47:26;;;;;;;3.70;3.40;;;18.50;36.40;;;;;;4958810;28;20973;-67
2023/01/28 03:49:54;;;;;;;4.20;3.90;;;18.50;36.40;;;;;;4956699;28;20458;-67
2023/01/28 03:52:22;;;;;;;4.63;4.23;;;18.50;36.40;;;;;;4956081;28;20577;-66
2023/01/28 03:54:48;;;;;;;4.73;4.40;;;18.50;36.40;;;;;;4956036;28;20432;-67
2023/01/28 03:57:15;;;;;;;5.00;3.73;;;18.60;36.60;;;;;;4956304;28;20430;-67
2023/01/28 03:59:40;;;;;;;3.90;3.70;;;18.60;36.50;;;;;;4956923;28;20224;-67
2023/01/28 04:02:07;;;;;;;3.43;3.20;;;18.50;36.40;;;;;;4953103;28;20510;-67
2023/01/28 04:04:33;;;;;;;3.87;3.67;;;18.50;36.40;;;;;;4958644;28;20319;-67
2023/01/28 04:06:59;;;;;;;3.33;3.13;;;18.60;36.50;;;;;;4956437;28;20962;-66
2023/01/28 04:09:24;;;;;;;4.73;4.10;;;18.50;36.50;;;;;;4957424;28;20228;-67
2023/01/28 04:11:50;;;;;;;4.10;3.80;;;18.50;36.40;;;;;;4955780;28;20768;-67
2023/01/28 04:14:17;;;;;;;3.20;3.00;;;18.50;36.40;;;;;;4960237;28;20220;-67
2023/01/28 04:16:43;;;;;;;4.17;3.87;;;18.50;36.40;;;;;;4956158;28;20235;-67
2023/01/28 04:19:11;;;;;;;4.20;3.90;;;18.50;36.40;;;;;;4959394;28;20451;-67
2023/01/28 04:21:36;;;;;;;3.27;3.00;;;18.50;36.40;;;;;;4953302;28;20494;-66
2023/01/28 04:24:02;;;;;;;3.90;3.57;;;18.50;36.40;;;;;;4959509;28;20954;-67
2023/01/28 04:26:27;;;;;;;3.13;2.93;;;18.60;36.50;;;;;;4955097;28;20243;-66
2023/01/28 04:28:53;;;;;;;3.30;3.10;;;18.50;36.40;;;;;;4959305;28;20225;-67
2023/01/28 04:31:19;;;;;;;3.27;3.07;;;18.60;36.50;;;;;;4936395;28;20331;-67
2023/01/28 04:33:44;;;;;;;4.17;3.90;;;18.50;36.30;;;;;;4957127;28;20231;-66
2023/01/28 04:36:10;;;;;;;4.03;3.70;;;18.60;36.50;;;;;;4953612;28;20594;-67
2023/01/28 04:38:35;;;;;;;3.63;3.43;;;18.60;36.40;;;;;;4959496;28;20334;-67
2023/01/28 04:41:01;;;;;;;3.33;3.13;;;18.60;36.50;;;;;;4956748;28;20763;-67
2023/01/28 04:43:26;;;;;;;3.47;3.27;;;18.60;36.40;;;;;;4958826;28;22276;-68
2023/01/28 04:45:52;;;;;;;3.97;3.67;;;18.60;36.40;;;;;;4956604;28;20228;-68
2023/01/28 04:48:17;;;;;;;3.77;3.47;;;18.60;36.30;;;;;;4957453;28;20830;-68
2023/01/28 04:50:44;;;;;;;3.90;3.70;;;18.60;36.30;;;;;;4955760;28;20225;-66
2023/01/28 04:53:10;;;;;;;3.40;3.10;;;18.60;36.30;;;;;;4956217;28;20272;-67
2023/01/28 04:55:36;;;;;;;3.70;3.50;;;18.60;36.30;;;;;;4955627;28;20437;-66
2023/01/28 04:58:02;;;;;;;3.70;3.50;;;18.60;36.30;;;;;;4959500;28;20493;-67
2023/01/28 05:00:27;;;;;;;4.20;3.87;;;18.60;36.20;;;;;;4954655;28;20296;-67
2023/01/28 05:02:53;;;;;;;3.20;3.00;;;18.60;36.20;;;;;;4956873;28;20255;-67
2023/01/28 05:05:18;;;;;;;3.60;3.30;;;18.60;36.20;;;;;;4956239;28;20262;-67
2023/01/28 05:07:49;;;;;;;3.40;3.20;;;18.60;36.20;;;;;;4957926;28;20720;-67
2023/01/28 05:10:15;;;;;;;3.73;3.00;;;18.60;36.20;;;;;;4957371;28;20231;-67
2023/01/28 05:12:43;;;;;;;3.27;3.07;;;18.60;36.20;;;;;;4959292;28;20421;-67
2023/01/28 05:15:08;;;;;;;4.23;3.93;;;18.60;36.20;;;;;;4959972;28;20220;-67
2023/01/28 05:17:34;;;;;;;3.77;3.57;;;18.70;36.30;;;;;;4960944;28;20455;-66
2023/01/28 05:19:59;;;;;;;3.37;3.17;;;18.70;36.20;;;;;;4962462;28;20302;-67
2023/01/28 05:22:25;;;;;;;3.67;3.47;;;18.70;36.20;;;;;;4957099;28;20240;-68
2023/01/28 05:24:50;;;;;;;3.77;3.47;;;18.70;36.20;;;;;;4961677;28;20225;-67
2023/01/28 05:27:16;;;;;;;3.67;3.47;;;18.70;36.20;;;;;;4957968;28;21518;-67
2023/01/28 05:29:41;;;;;;;3.23;3.03;;;18.70;36.20;;;;;;4963102;28;20267;-67
2023/01/28 05:32:07;;;;;;;3.60;3.40;;;18.70;36.20;;;;;;4958566;28;20687;-67
2023/01/28 05:34:33;;;;;;;3.07;2.87;;;18.70;36.20;;;;;;4962826;28;20236;-67
2023/01/28 05:36:58;;;;;;;3.30;3.10;;;18.70;36.20;;;;;;4958885;28;20219;-68
2023/01/28 05:39:24;;;;;;;3.00;2.80;;;18.70;36.20;;;;;;4958713;28;20236;-67
2023/01/28 05:41:50;;;;;;;2.97;2.77;;;18.70;36.20;;;;;;4959636;28;20237;-67
2023/01/28 05:44:15;;;;;;;3.43;3.13;;;18.70;36.20;;;;;;4965010;28;20232;-67
2023/01/28 05:46:44;;;;;;;3.33;3.13;;;18.70;36.20;;;;;;4961605;28;20228;-67
2023/01/28 05:49:12;;;;;;;3.47;3.27;;;18.70;36.10;;;;;;4964100;28;20236;-67
2023/01/28 05:51:38;;;;;;;3.10;2.90;;;18.70;36.10;;;;;;4956403;28;20518;-67
2023/01/28 05:54:04;;;;;;;3.37;3.17;;;18.70;36.10;;;;;;4964487;28;20454;-67
2023/01/28 05:56:30;;;;;;;3.20;3.00;;;18.70;36.10;;;;;;4960718;28;20474;-67
2023/01/28 05:58:55;;;;;;;3.20;3.00;;;18.70;36.10;;;;;;4962656;28;20437;-67
2023/01/28 06:01:21;;;;;;;3.27;2.97;;;18.70;36.00;;;;;;4960251;28;20324;-65
2023/01/28 06:03:46;;;;;;;3.27;2.97;;;18.70;36.00;;;;;;4964351;28;20231;-67
2023/01/28 06:06:12;;;;;;;3.40;3.20;;;18.70;36.10;;;;;;4960946;28;20262;-65
2023/01/28 06:08:37;;;;;;;3.30;3.10;;;18.70;36.10;;;;;;4964106;28;20224;-71
2023/01/28 06:11:03;;;;;;;3.47;3.27;;;18.70;36.10;;;;;;4962766;28;20228;-69
2023/01/28 06:13:29;;;;;;;3.20;3.00;;;18.70;36.00;;;;;;4961808;28;20268;-66
2023/01/28 06:15:54;;;;;;;3.00;2.80;;;18.70;36.10;;;;;;4961813;28;20237;-67
2023/01/28 06:18:19;;;;;;;3.40;3.20;;;18.70;36.10;;;;;;4962006;28;20231;-67
2023/01/28 06:20:47;;;;;;;3.33;3.13;;;18.70;36.10;;;;;;4960055;28;20236;-67
2023/01/28 06:23:13;;;;;;;2.87;2.67;;;18.70;36.10;;;;;;4953772;28;20224;-66
2023/01/28 06:25:38;;;;;;;3.40;3.20;;;18.70;36.00;;;;;;4960195;28;20465;-66
2023/01/28 06:28:04;;;;;;;4.10;3.10;;;18.70;36.10;;;;;;4961031;28;20235;-67
2023/01/28 06:30:29;;;;;;;3.30;3.10;;;18.70;36.10;;;;;;4957329;28;20243;-67
2023/01/28 06:32:55;;;;;;;4.20;3.13;;;18.70;36.00;;;;;;4958492;28;20224;-67
2023/01/28 06:35:21;;;;;;;2.80;2.60;;;18.70;36.00;;;;;;4960756;28;20340;-65
2023/01/28 06:37:46;;;;;;;3.40;3.20;;;18.70;36.80;;;;;;4962231;28;20231;-67
2023/01/28 06:40:12;;;;;;;3.30;3.10;;;18.70;36.20;;;;;;4959536;28;20228;-66
2023/01/28 06:42:38;;;;;;;3.20;3.00;;;18.70;36.10;;;;;;4959995;28;20295;-67
2023/01/28 06:45:04;;;;;;;3.13;2.93;;;18.70;36.10;;;;;;4961145;28;20291;-66
2023/01/28 06:47:29;;;;;;;3.50;3.30;;;18.70;36.00;;;;;;4960243;28;20225;-67
2023/01/28 06:49:55;;;;;;;3.37;3.07;;;18.70;36.10;;;;;;4952996;28;20683;-67
2023/01/28 06:52:20;;;;;;;2.93;2.83;;;18.70;36.10;;;;;;4958471;28;20225;-67
2023/01/28 06:54:46;;;;;;;3.00;2.80;;;18.70;36.10;;;;;;4961989;28;20224;-66
2023/01/28 06:57:11;;;;;;;3.20;3.00;;;18.70;36.20;;;;;;4960869;28;20304;-67
2023/01/28 06:59:37;;;;;;;3.30;3.10;;;18.70;36.10;;;;;;4961600;28;20701;-67
2023/01/28 07:02:02;;;;;;;3.63;3.43;;;18.70;36.10;;;;;;4956381;28;20579;-65
2023/01/28 07:04:28;;;;;;;3.40;3.20;;;18.70;36.10;;;;;;4961836;28;20229;-67
2023/01/28 07:06:54;;;;;;;4.33;3.10;;;18.70;36.20;;;;;;4957748;28;20271;-67
2023/01/28 07:09:19;;;;;;;2.90;2.70;;;18.70;36.10;;;;;;4958123;28;20471;-67
2023/01/28 07:11:45;;;;;;;2.90;2.70;;;18.70;36.10;;;;;;4948601;28;20228;-65
2023/01/28 07:14:10;;;;;;;3.60;3.40;;;18.70;36.10;;;;;;4950238;28;20224;-65
2023/01/28 07:16:36;;;;;;;3.50;3.20;;;18.70;36.10;;;;;;4956869;28;20232;-65
2023/01/28 07:19:02;;;;;;;3.30;3.10;;;18.70;36.10;;;;;;4964605;28;20247;-67
2023/01/28 07:21:27;;;;;;;3.30;3.10;;;18.70;36.20;;;;;;4956646;28;20331;-67
2023/01/28 07:23:53;;;;;;;3.30;3.10;;;18.70;36.20;;;;;;4958669;28;20298;-67
2023/01/28 07:26:18;;;;;;;3.20;3.00;;;18.70;36.10;;;;;;4952927;28;20217;-66
2023/01/28 07:28:44;;;;;;;3.10;2.90;;;18.70;36.20;;;;;;4963272;28;20232;-67
2023/01/28 07:31:10;;;;;;;3.60;3.30;;;18.70;36.10;;;;;;4954621;28;20232;-68
2023/01/28 07:33:36;;;;;;;5.00;3.23;;;18.70;36.10;;;;;;4954347;28;20458;-68
2023/01/28 07:36:01;;;;;;;3.80;3.60;;;18.70;36.10;;;;;;4955852;28;20323;-64
2023/01/28 07:38:27;;;;;;;3.57;3.37;;;18.70;36.00;;;;;;4959859;28;20229;-64
2023/01/28 07:40:52;;;;;;;3.50;3.30;;;18.70;36.00;;;;;;4958100;28;20236;-64
2023/01/28 07:43:18;;;;;;;3.23;2.90;;;18.70;36.00;;;;;;4958024;28;20224;-63
2023/01/28 07:45:43;;;;;;;3.60;3.40;;;18.70;36.00;;;;;;4954647;28;20220;-63
2023/01/28 07:48:11;;;;;;;3.43;3.23;;;18.70;36.00;;;;;;4954036;28;20220;-64
2023/01/28 07:50:38;;;;;;;3.10;2.90;;;18.70;36.00;;;;;;4957869;28;20365;-63
2023/01/28 07:53:06;;;;;;;3.70;3.43;;;18.70;36.70;;;;;;4958900;28;20549;-63
2023/01/28 07:55:34;;;;;;;4.27;3.93;;;18.70;35.90;;;;;;4955292;28;20442;-65
2023/01/28 07:58:00;;;;;;;3.57;3.37;;;18.70;36.00;;;;;;4958955;28;20500;-66
2023/01/28 08:00:28;;;;;;;3.20;3.00;;;18.70;35.90;;;;;;4954701;28;20469;-66
2023/01/28 08:02:56;;;;;;;3.60;3.40;;;18.70;36.00;;;;;;4957138;28;20519;-65
2023/01/28 08:05:22;;;;;;;3.07;2.87;;;18.70;35.90;;;;;;4958403;28;20470;-65
2023/01/28 08:07:48;;;;;;;3.00;2.80;;;18.70;36.00;;;;;;4958315;28;21396;-65
2023/01/28 08:10:15;;;;;;;3.07;2.87;;;18.80;36.00;;;;;;4956225;28;20224;-65
2023/01/28 08:12:50;;;;;;;3.50;3.30;;;18.70;35.90;;;;;;4954186;28;20441;-65
2023/01/28 08:15:15;;;;;;;3.33;3.13;;;18.70;36.00;;;;;;4957979;28;21605;-65
2023/01/28 08:17:41;;;;;;;3.70;3.40;;;18.70;36.00;;;;;;4959296;28;20509;-66
2023/01/28 08:20:07;;;;;;;3.10;2.90;;;18.70;35.90;;;;;;4955109;28;21475;-67
2023/01/28 08:22:33;;;;;;;3.03;2.83;;;18.70;36.00;;;;;;4955296;28;20728;-65
2023/01/28 08:24:58;;;;;;;3.30;3.00;;;18.70;36.00;;;;;;4956728;28;20459;-62
2023/01/28 08:27:24;;;;;;;3.30;3.10;;;18.70;36.00;;;;;;4950930;28;20256;-64
2023/01/28 08:29:49;;;;;;;3.00;2.80;;;18.70;36.00;;;;;;4953446;28;20569;-67
2023/01/28 08:32:15;;;;;;;3.30;3.00;;;18.70;36.00;;;;;;4949528;28;20276;-67
2023/01/28 08:34:41;;;;;;;3.70;3.20;;;18.70;36.00;;;;;;4954033;28;20256;-68
2023/01/28 08:37:06;;;;;;;9.73;4.73;;;18.70;36.00;;;;;;4953093;28;20233;-67
2023/01/28 08:39:32;;;;;;;18.93;9.00;;;18.80;36.10;;;;;;4956035;28;20303;-67
2023/01/28 08:41:57;;;;;;;8.23;5.60;;;18.80;36.10;;;;;;4957845;28;20240;-67
2023/01/28 08:44:23;;;;;;;10.97;5.70;;;18.80;36.10;;;;;;4960397;28;20235;-66
2023/01/28 08:46:48;;;;;;;11.93;5.80;;;18.80;36.10;;;;;;4960600;28;20254;-68
2023/01/28 08:49:14;;;;;;;10.30;5.00;;;18.80;36.10;;;;;;4960858;28;20302;-65
2023/01/28 08:51:39;;;;;;;10.27;5.27;;;18.80;36.10;;;;;;4952921;28;20237;-66
2023/01/28 08:54:04;;;;;;;11.43;5.77;;;18.80;36.10;;;;;;4953963;28;20216;-66
2023/01/28 08:56:30;;;;;;;5.57;4.67;;;18.70;36.00;;;;;;4961579;28;20240;-67
2023/01/28 08:58:55;;;;;;;6.13;4.10;;;18.70;36.00;;;;;;4961619;28;20243;-66
2023/01/28 09:01:21;;;;;;;5.40;4.57;;;18.70;36.80;;;;;;4960809;28;20312;-67
2023/01/28 09:03:46;;;;;;;4.67;3.93;;;18.70;36.00;;;;;;4961331;28;20601;-67
2023/01/28 09:06:12;;;;;;;9.67;4.23;;;18.70;35.90;;;;;;4960919;28;20240;-67
2023/01/28 09:08:38;;;;;;;7.50;4.60;;;18.70;36.00;;;;;;4965496;28;20751;-66
2023/01/28 09:11:03;;;;;;;5.30;4.80;;;18.70;36.00;;;;;;4961799;28;20718;-67
2023/01/28 09:13:29;;;;;;;5.90;4.07;;;18.70;36.00;;;;;;4965947;28;20776;-67
2023/01/28 09:15:55;;;;;;;12.20;4.63;;;18.70;36.00;;;;;;4960314;28;20224;-66
2023/01/28 09:18:21;;;;;;;4.73;4.27;;;18.70;36.10;;;;;;4962587;28;20304;-66
2023/01/28 09:20:47;;;;;;;5.90;4.40;;;18.70;36.00;;;;;;4960749;28;20448;-66
2023/01/28 09:23:13;;;;;;;4.07;3.70;;;18.70;36.00;;;;;;4963658;28;20652;-66
2023/01/28 09:25:39;;;;;;;4.77;4.30;;;18.70;36.00;;;;;;4961795;28;20596;-66
2023/01/28 09:28:05;;;;;;;4.43;3.93;;;18.70;36.00;;;;;;4963284;28;20286;-66
2023/01/28 09:30:31;;;;;;;4.20;3.90;;;18.70;36.00;;;;;;4959656;28;21261;-67
2023/01/28 09:32:59;;;;;;;4.73;3.93;;;18.70;36.00;;;;;;4961872;28;20417;-69
2023/01/28 09:35:25;;;;;;;5.70;3.37;;;18.70;36.00;;;;;;4962008;28;20232;-70
2023/01/28 09:37:50;;;;;;;4.37;4.07;;;18.70;36.00;;;;;;4960755;28;20437;-70
2023/01/28 09:40:23;;;;;;;4.97;3.53;;;18.70;36.10;;;;;;4960503;28;20229;-62
2023/01/28 09:43:24;;;;;;;4.87;3.60;;;18.70;36.10;;;;;;4962788;28;20251;-63
2023/01/28 09:45:54;;;;;;;4.10;3.83;;;18.70;36.10;;;;;;4954692;28;20485;-66
2023/01/28 09:48:23;;;;;;;4.80;3.40;;;18.70;36.00;;;;;;4963942;28;20433;-67
2023/01/28 09:50:52;;;;;;;5.33;4.53;;;18.70;36.00;;;;;;4962542;28;20470;-66
2023/01/28 09:53:19;;;;;;;3.63;3.33;;;18.60;36.00;;;;;;4963092;28;20572;-67
2023/01/28 09:55:54;;;;;;;2.90;2.70;;;18.60;36.00;;;;;;4961815;28;20483;-67
2023/01/28 09:58:20;;;;;;;3.30;3.00;;;18.60;36.00;;;;;;4958911;28;20429;-67
2023/01/28 10:01:15;;;;;;;3.57;3.37;;;18.60;36.70;;;;;;4955475;28;20627;-66
2023/01/28 10:03:56;;;;;;;5.50;3.47;;;18.60;36.00;;;;;;4950026;28;20229;-66
2023/01/28 10:06:32;;;;;;;3.40;3.20;;;18.60;36.00;;;;;;4956164;28;21037;-66
2023/01/28 10:09:00;;;;;;;3.10;2.90;;;18.70;36.10;;;;;;4956189;28;20557;-67
2023/01/28 10:11:37;;;;;;;4.30;4.10;;;18.60;36.80;;;;;;4955740;28;20996;-66
2023/01/28 10:14:26;;;;;;;5.97;4.77;;;18.70;36.10;;;;;;4951088;28;20441;-67
2023/01/28 10:17:06;;;;;;;5.73;5.37;;;18.70;36.10;;;;;;4913397;28;20541;-66
2023/01/28 10:19:42;;;;;;;4.33;4.00;;;18.70;36.00;;;;;;4955306;28;20493;-67
2023/01/28 10:22:21;;;;;;;3.43;3.13;;;18.70;36.00;;;;;;4949292;28;21519;-67
2023/01/28 10:24:53;;;;;;;4.40;3.00;;;18.70;36.00;;;;;;4958274;28;20626;-67
2023/01/28 10:27:22;;;;;;;2.90;2.70;;;18.70;36.00;;;;;;4953574;28;21332;-67
2023/01/28 10:29:49;;;;;;;6.33;3.20;;;18.70;36.00;;;;;;4956821;28;20528;-67
2023/01/28 10:32:33;;;;;;;3.03;2.83;;;18.70;36.20;;;;;;4954950;28;20460;-67
2023/01/28 10:35:00;;;;;;;3.17;2.90;;;18.70;36.10;;;;;;4960129;28;20517;-67
2023/01/28 10:37:27;;;;;;;3.67;3.37;;;18.70;36.10;;;;;;4957290;28;20433;-66
2023/01/28 10:39:57;;;;;;;3.23;3.03;;;18.70;36.10;;;;;;4958203;28;20507;-67
2023/01/28 10:42:31;;;;;;;3.07;2.80;;;18.70;36.10;;;;;;4953256;28;20482;-67
2023/01/28 10:45:08;;;;;;;3.80;3.03;;;18.70;36.10;;;;;;4957159;28;20474;-67
2023/01/28 10:47:39;;;;;;;3.37;3.17;;;18.70;36.10;;;;;;4956218;28;20470;-67
2023/01/28 10:50:16;;;;;;;3.13;2.93;;;18.70;36.10;;;;;;4955531;28;20478;-65
2023/01/28 10:53:05;;;;;;;4.27;3.87;;;18.70;36.20;;;;;;4953987;28;21151;-66
2023/01/28 10:55:53;;;;;;;3.10;2.90;;;18.70;36.90;;;;;;4957069;28;21183;-66
2023/01/28 10:58:25;;;;;;;3.03;2.73;;;18.60;36.00;;;;;;4946584;28;20532;-66
2023/01/28 11:00:58;;;;;;;3.90;3.13;;;18.60;36.10;;;;;;4954626;28;20578;-66
2023/01/28 11:03:28;;;;;;;3.13;2.93;;;18.60;36.10;;;;;;4952266;28;20437;-67
2023/01/28 11:05:55;;;;;;;3.63;3.33;;;18.60;36.10;;;;;;4950625;28;20813;-66
2023/01/28 11:08:22;;;;;;;3.70;3.40;;;18.60;36.10;;;;;;4954271;28;20478;-67
2023/01/28 11:10:49;;;;;;;3.20;2.90;;;18.60;36.10;;;;;;4956426;28;21013;-66
2023/01/28 11:13:20;;;;;;;3.37;3.17;;;18.60;36.10;;;;;;4952192;28;20472;-67
2023/01/28 11:16:05;;;;;;;3.70;3.40;;;18.60;36.10;;;;;;4955592;28;20896;-66
2023/01/28 11:18:38;;;;;;;3.60;3.40;;;18.60;36.10;;;;;;4953336;28;20505;-67
2023/01/28 11:21:17;;;;;;;3.70;3.50;;;18.60;36.10;;;;;;4954410;28;20478;-67
2023/01/28 11:23:50;;;;;;;3.37;3.17;;;18.60;36.10;;;;;;4955915;28;21844;-68
2023/01/28 11:26:37;;;;;;;3.60;3.40;;;18.60;36.10;;;;;;4955346;28;20466;-69
2023/01/28 11:29:03;;;;;;;3.33;3.13;;;18.60;36.00;;;;;;4956868;28;20440;-69
2023/01/28 11:31:40;;;;;;;3.30;3.10;;;18.60;36.10;;;;;;4957094;28;20474;-70
2023/01/28 11:34:05;;;;;;;3.50;3.30;;;18.60;36.10;;;;;;4954706;28;20545;-65
2023/01/28 11:36:33;;;;;;;3.67;3.37;;;18.60;36.80;;;;;;4954589;28;21107;-67
2023/01/28 11:39:01;;;;;;;3.67;3.47;;;18.60;36.10;;;;;;4954137;28;20299;-67
2023/01/28 11:41:32;;;;;;;3.20;3.00;;;18.70;36.10;;;;;;4957752;28;20470;-66
2023/01/28 11:44:14;;;;;;;3.70;3.40;;;18.70;36.10;;;;;;4955571;28;20449;-66
2023/01/28 11:46:58;;;;;;;4.80;3.57;;;18.70;36.10;;;;;;4952357;28;20466;-66
2023/01/28 11:50:08;;;;;;;3.40;3.20;;;18.70;36.10;;;;;;4941137;28;20487;-66
2023/01/28 11:52:41;;;;;;;3.27;3.07;;;18.70;36.00;;;;;;4913036;29;20450;-66
2023/01/28 11:55:35;;;;;;;3.60;3.40;;;18.70;36.00;;;;;;4932846;28;20842;-66
2023/01/28 11:58:33;;;;;;;3.87;3.67;;;18.70;36.00;;;;;;4934703;28;20455;-66
2023/01/28 12:01:08;;;;;;;3.40;3.20;;;18.70;36.00;;;;;;4933649;28;20886;-66
2023/01/28 12:03:42;;;;;;;3.30;3.10;;;18.70;36.00;;;;;;4934179;28;20480;-66
2023/01/28 12:06:17;;;;;;;3.70;3.40;;;18.70;36.10;;;;;;4931249;28;20542;-65
2023/01/28 12:08:45;;;;;;;3.60;3.40;;;18.70;36.00;;;;;;4932924;28;20454;-66
2023/01/28 12:14:23;;;;;;;3.50;3.30;;;18.70;36.00;;;;;;4937582;28;20445;-64
2023/01/28 12:16:58;;;;;;;3.20;3.00;;;18.70;36.00;;;;;;4933068;28;20482;-66
2023/01/28 12:19:50;;;;;;;11.50;5.73;;;18.70;36.10;;;;;;4936155;28;20983;-64
2023/01/28 12:22:38;;;;;;;19.60;5.30;;;18.70;36.00;;;;;;4936881;28;20487;-65
2023/01/28 12:25:25;;;;;;;18.03;6.30;;;18.70;36.00;;;;;;4941548;28;20464;-64
2023/01/28 12:28:12;;;;;;;65.50;15.30;;;18.70;36.00;;;;;;4937386;28;20463;-65
2023/01/28 12:30:43;;;;;;;66.77;13.23;;;18.70;36.00;;;;;;4936594;28;21190;-64
2023/01/28 12:33:57;;;;;;;66.20;15.53;;;18.80;36.20;;;;;;4935196;28;21058;-64
2023/01/28 12:36:28;;;;;;;44.63;12.93;;;18.80;36.20;;;;;;4898987;28;21175;-64
2023/01/28 12:38:57;;;;;;;50.63;13.60;;;18.80;36.30;;;;;;4937151;28;20464;-65
2023/01/28 12:41:29;;;;;;;55.67;14.13;;;18.80;36.30;;;;;;4932858;28;20454;-64
2023/01/28 12:44:01;;;;;;;93.50;15.87;;;18.80;36.40;;;;;;4939130;28;20459;-64
2023/01/28 12:46:52;;;;;;;69.90;13.00;;;18.80;36.40;;;;;;4939054;28;20463;-62
2023/01/28 12:49:23;;;;;;;115.23;21.33;;;18.80;36.40;;;;;;4954663;28;20981;-62
2023/01/28 12:52:29;;;;;;;108.13;19.33;;;18.80;36.50;;;;;;4961479;28;20470;-64
2023/01/28 12:54:58;;;;;;;41.07;9.53;;;18.90;36.60;;;;;;4965227;28;20451;-62
2023/01/28 12:57:27;;;;;;;41.53;9.97;;;18.90;36.60;;;;;;4965207;28;20463;-62
2023/01/28 13:00:17;;;;;;;30.20;7.97;;;18.90;36.80;;;;;;4958099;28;20558;-62
2023/01/28 13:02:51;;;;;;;20.00;7.20;;;18.90;36.70;;;;;;4962004;28;20474;-62
2023/01/28 13:05:21;;;;;;;15.53;5.57;;;18.90;36.70;;;;;;4962405;28;20535;-62
2023/01/28 13:07:57;;;;;;;11.43;4.80;;;19.00;36.80;;;;;;4961717;28;20474;-63
2023/01/28 13:10:35;;;;;;;9.10;4.60;;;19.00;36.80;;;;;;4959548;28;21145;-61
2023/01/28 13:13:02;;;;;;;12.90;5.03;;;19.00;36.80;;;;;;4951265;28;20503;-67
2023/01/28 13:15:29;;;;;;;9.87;5.27;;;19.00;36.80;;;;;;4960293;28;20565;-67
2023/01/28 13:17:56;;;;;;;10.03;4.27;;;19.00;36.80;;;;;;4955557;28;21570;-66
2023/01/28 13:20:46;;;;;;;5.93;4.47;;;19.00;36.70;;;;;;4957811;28;20458;-66
2023/01/28 13:23:36;;;;;;;7.07;3.93;;;19.00;36.70;;;;;;4956703;28;20544;-66
2023/01/28 13:26:18;;;;;;;15.10;5.10;;;19.00;36.70;;;;;;4960572;28;20954;-67
2023/01/28 13:28:48;;;;;;;4.13;3.73;;;19.00;36.70;;;;;;4960231;28;20936;-67
2023/01/28 13:31:16;;;;;;;6.83;4.20;;;19.10;36.80;;;;;;4956005;28;20491;-67
2023/01/28 13:34:03;;;;;;;11.53;4.73;;;19.10;36.70;;;;;;4957584;28;20564;-67